Time;durP1;ratioP1;P1;durP2;ratioP2;P2;SDS_P1;SDS_P2;PMS_P1;PMS_P2;Temp;Humidity;BMP_temperature;BMP_pressure;BME280_temperature;BME280_humidity;BME280_pressure;Samples;Min_cycle;Max_cycle;Signal;HPM_P1;HPM_P2
2024/01/17 00:00:35;;;;;;;34.97;15.88;;;;;;;-1.45;77.84;93808.72;5082914;28;20032;-76
2024/01/17 00:03:01;;;;;;;33.10;14.85;;;;;;;-1.43;77.80;93820.50;5082927;28;20044;-76
2024/01/17 00:05:27;;;;;;;37.20;15.65;;;;;;;-1.41;78.02;93802.75;5083158;28;20020;-77
2024/01/17 00:07:52;;;;;;;29.95;14.43;;;;;;;-1.37;77.93;93805.69;5082686;28;20336;-77
2024/01/17 00:10:18;;;;;;;26.13;12.57;;;;;;;-1.36;77.84;93809.09;5082770;28;20046;-76
2024/01/17 00:12:44;;;;;;;31.70;14.82;;;;;;;-1.34;77.49;93809.66;5082751;28;20027;-76
2024/01/17 00:15:09;;;;;;;30.42;13.52;;;;;;;-1.28;77.60;93821.78;5082662;28;20258;-76
2024/01/17 00:17:35;;;;;;;33.85;14.52;;;;;;;-1.23;77.20;93830.47;5082546;28;20036;-76
2024/01/17 00:20:00;;;;;;;30.20;13.20;;;;;;;-1.22;76.88;93832.09;5082676;28;20054;-76
2024/01/17 00:22:26;;;;;;;31.40;14.68;;;;;;;-1.24;76.70;93834.16;5082522;28;20051;-76
2024/01/17 00:24:52;;;;;;;34.20;14.35;;;;;;;-1.28;77.01;93833.03;5082671;28;20016;-76
2024/01/17 00:27:18;;;;;;;32.38;13.27;;;;;;;-1.26;76.87;93838.03;5082634;28;20184;-76
2024/01/17 00:29:45;;;;;;;35.00;13.25;;;;;;;-1.30;77.04;93847.41;5082453;28;20024;-76
2024/01/17 00:32:11;;;;;;;31.05;12.93;;;;;;;-1.46;77.07;93836.69;5082553;28;20306;-76
2024/01/17 00:34:36;;;;;;;27.05;12.25;;;;;;;-1.43;77.67;93838.03;5082533;28;20020;-76
2024/01/17 00:37:02;;;;;;;33.80;13.10;;;;;;;-1.37;77.24;93825.84;5082283;28;20020;-77
2024/01/17 00:39:27;;;;;;;24.98;13.45;;;;;;;-1.35;77.36;93827.16;5082446;28;20108;-76
2024/01/17 00:41:53;;;;;;;29.75;14.02;;;;;;;-1.34;76.99;93827.94;5082550;28;20091;-76
2024/01/17 00:44:21;;;;;;;29.40;13.38;;;;;;;-1.32;77.09;93824.09;5082497;28;20040;-77
2024/01/17 00:46:47;;;;;;;24.73;13.05;;;;;;;-1.32;76.90;93828.50;5082392;28;20334;-77
2024/01/17 00:49:13;;;;;;;25.58;12.70;;;;;;;-1.29;76.56;93828.03;5082230;28;20027;-76
2024/01/17 00:51:38;;;;;;;23.98;12.40;;;;;;;-1.33;76.64;93827.72;5082423;28;20028;-76
2024/01/17 00:54:05;;;;;;;29.75;13.65;;;;;;;-1.35;76.46;93821.94;5082331;28;20051;-77
2024/01/17 00:56:32;;;;;;;26.77;12.68;;;;;;;-1.39;76.90;93814.81;5082345;28;20051;-77
2024/01/17 00:58:58;;;;;;;35.78;14.52;;;;;;;-1.41;76.69;93808.00;5082037;28;20035;-77
2024/01/17 01:01:24;;;;;;;28.20;13.38;;;;;;;-1.37;76.92;93802.31;5082363;28;20020;-77
2024/01/17 01:03:49;;;;;;;30.80;12.95;;;;;;;-1.38;77.17;93803.31;5081219;28;20017;-76
2024/01/17 01:06:15;;;;;;;24.77;12.95;;;;;;;-1.36;76.58;93809.09;5082216;28;20372;-76
2024/01/17 01:08:40;;;;;;;25.98;13.73;;;;;;;-1.43;76.88;93806.66;5082038;28;20024;-77
2024/01/17 01:11:06;;;;;;;28.20;12.73;;;;;;;-1.43;76.91;93801.44;5082015;28;20054;-76
2024/01/17 01:13:31;;;;;;;28.98;14.10;;;;;;;-1.49;77.07;93805.78;5080919;28;20028;-77
2024/01/17 01:15:56;;;;;;;26.60;13.05;;;;;;;-1.48;77.25;93807.38;5086001;28;20042;-77
2024/01/17 01:18:22;;;;;;;30.23;13.85;;;;;;;-1.49;76.83;93797.16;5085814;28;20095;-75
2024/01/17 01:20:47;;;;;;;25.13;13.05;;;;;;;-1.47;76.75;93788.03;5085774;28;20024;-76
2024/01/17 01:23:13;;;;;;;28.02;14.25;;;;;;;-1.47;77.29;93787.25;5085629;28;20025;-76
2024/01/17 01:25:38;;;;;;;28.58;13.52;;;;;;;-1.47;77.42;93782.03;5085711;28;20040;-76
2024/01/17 01:28:04;;;;;;;36.53;15.63;;;;;;;-1.45;77.34;93788.59;5085607;28;20298;-77
2024/01/17 01:30:30;;;;;;;32.17;15.57;;;;;;;-1.48;77.67;93796.94;5085535;28;20042;-76
2024/01/17 01:32:56;;;;;;;37.97;17.98;;;;;;;-1.51;77.33;93796.59;5085669;28;20020;-77
2024/01/17 01:35:21;;;;;;;33.65;16.08;;;;;;;-1.62;77.78;93809.53;5085522;28;20058;-77
2024/01/17 01:37:47;;;;;;;35.35;15.07;;;;;;;-1.70;77.86;93825.59;5085584;28;20040;-77
2024/01/17 01:40:12;;;;;;;28.20;14.20;;;;;;;-1.79;78.73;93831.44;5085378;28;20066;-76
2024/01/17 01:42:43;;;;;;;39.13;16.27;;;;;;;-1.81;79.04;93831.72;5085402;28;20024;-76
2024/01/17 01:45:08;;;;;;;42.55;19.13;;;;;;;-1.88;79.24;93828.44;5085316;28;20087;-75
2024/01/17 01:47:34;;;;;;;43.50;19.88;;;;;;;-1.88;79.56;93828.44;5085203;28;20012;-75
2024/01/17 01:50:00;;;;;;;37.80;18.02;;;;;;;-1.84;79.92;93826.94;5085335;28;20069;-75
2024/01/17 01:52:27;;;;;;;47.55;19.65;;;;;;;-1.86;80.47;93821.94;5085160;28;20029;-76
2024/01/17 01:54:54;;;;;;;42.40;18.75;;;;;;;-1.88;80.40;93828.44;5085186;28;20222;-75
2024/01/17 01:57:21;;;;;;;36.67;16.33;;;;;;;-1.94;80.22;93819.72;5085089;28;20020;-75
2024/01/17 01:59:47;;;;;;;38.20;16.65;;;;;;;-1.98;80.30;93823.84;5085180;28;20043;-76
2024/01/17 02:02:14;;;;;;;36.88;15.73;;;;;;;-1.98;80.70;93817.81;5084923;28;20029;-75
2024/01/17 02:04:41;;;;;;;30.92;14.60;;;;;;;-1.99;80.54;93817.03;5085087;28;20249;-75
2024/01/17 02:07:07;;;;;;;34.85;15.95;;;;;;;-2.02;80.30;93817.50;5085052;28;20373;-75
2024/01/17 02:09:33;;;;;;;31.73;15.00;;;;;;;-2.00;80.43;93807.59;5085021;28;20045;-75
2024/01/17 02:11:59;;;;;;;31.58;15.43;;;;;;;-2.00;80.57;93804.22;5084935;28;20051;-76
2024/01/17 02:14:25;;;;;;;30.35;13.52;;;;;;;-2.04;80.53;93799.44;5083430;28;20028;-76
2024/01/17 02:16:53;;;;;;;27.45;13.35;;;;;;;-1.97;80.50;93803.72;5084741;28;20315;-75
2024/01/17 02:19:21;;;;;;;29.60;12.43;;;;;;;-1.94;80.25;93804.03;5084838;28;20059;-75
2024/01/17 02:21:46;;;;;;;27.42;12.45;;;;;;;-1.89;79.66;93803.38;5084833;28;20031;-76
2024/01/17 02:24:15;;;;;;;37.47;14.38;;;;;;;-1.86;79.32;93806.28;5084618;28;20024;-77
2024/01/17 02:26:40;;;;;;;33.85;14.75;;;;;;;-1.87;79.46;93794.25;5083205;28;20029;-77
2024/01/17 02:29:06;;;;;;;32.38;13.85;;;;;;;-1.90;79.21;93789.47;5084355;28;20127;-75
2024/01/17 02:31:31;;;;;;;26.17;13.27;;;;;;;-1.92;79.58;93791.53;5083346;28;20131;-76
2024/01/17 02:33:57;;;;;;;23.50;11.23;;;;;;;-1.90;79.37;93784.25;5084433;28;20202;-76
2024/01/17 02:36:22;;;;;;;22.65;9.45;;;;;;;-1.89;79.34;93783.25;5084388;28;20125;-76
2024/01/17 02:38:48;;;;;;;17.25;9.25;;;;;;;-1.85;78.95;93786.97;5084400;28;20219;-77
2024/01/17 02:41:13;;;;;;;19.75;9.77;;;;;;;-1.80;78.92;93788.06;5084334;28;20020;-77
2024/01/17 02:43:39;;;;;;;16.92;8.65;;;;;;;-1.77;79.04;93791.00;5083891;28;20211;-77
2024/01/17 02:46:04;;;;;;;23.48;10.25;;;;;;;-1.72;79.12;93779.84;5084205;28;20024;-79
2024/01/17 02:48:29;;;;;;;16.45;7.57;;;;;;;-1.67;79.17;93787.75;5084176;28;20295;-78
2024/01/17 02:50:55;;;;;;;23.85;8.85;;;;;;;-1.65;79.01;93778.66;5084318;28;20017;-79
2024/01/17 02:53:23;;;;;;;17.98;8.90;;;;;;;-1.56;78.92;93784.25;5084390;28;20338;-78
2024/01/17 02:55:49;;;;;;;21.88;9.15;;;;;;;-1.52;78.67;93777.53;5084199;28;20032;-77
2024/01/17 02:58:14;;;;;;;20.13;7.72;;;;;;;-1.48;78.66;93776.00;5083926;28;20032;-78
2024/01/17 03:00:42;;;;;;;19.42;7.82;;;;;;;-1.46;78.92;93779.19;5084248;28;20242;-79
2024/01/17 03:03:09;;;;;;;17.80;9.13;;;;;;;-1.38;78.76;93774.56;5083972;28;20060;-78
2024/01/17 03:05:37;;;;;;;22.40;9.10;;;;;;;-1.32;78.43;93791.91;5083914;28;20024;-78
2024/01/17 03:08:05;;;;;;;17.48;8.45;;;;;;;-1.34;78.17;93791.34;5083696;28;20024;-77
2024/01/17 03:10:31;;;;;;;24.63;10.30;;;;;;;-1.36;78.20;93796.03;5083533;28;20058;-77
2024/01/17 03:12:56;;;;;;;20.80;8.23;;;;;;;-1.34;78.14;93788.72;5082474;28;20037;-77
2024/01/17 03:15:23;;;;;;;20.95;9.07;;;;;;;-1.31;78.11;93789.06;5083745;28;20336;-79
2024/01/17 03:17:49;;;;;;;21.80;7.95;;;;;;;-1.30;78.45;93792.47;5082421;28;20024;-78
2024/01/17 03:20:14;;;;;;;20.00;7.47;;;;;;;-1.24;78.13;93789.69;5083554;28;20062;-78
2024/01/17 03:22:40;;;;;;;22.00;8.00;;;;;;;-1.14;78.10;93785.59;5083612;28;20278;-77
2024/01/17 03:25:06;;;;;;;21.85;7.78;;;;;;;-1.11;78.33;93785.91;5083682;28;20319;-77
2024/01/17 03:27:31;;;;;;;14.93;7.40;;;;;;;-1.06;78.12;93782.56;5083526;28;20036;-77
2024/01/17 03:29:57;;;;;;;18.58;7.85;;;;;;;-1.01;78.00;93775.59;5083382;28;20319;-76
2024/01/17 03:32:22;;;;;;;14.05;7.10;;;;;;;-0.95;78.21;93775.66;5082188;28;20035;-79
2024/01/17 03:34:48;;;;;;;17.77;8.27;;;;;;;-0.94;78.21;93774.63;5083714;28;20012;-78
2024/01/17 03:37:13;;;;;;;20.42;8.55;;;;;;;-0.95;78.34;93778.28;5082995;28;20051;-77
2024/01/17 03:39:43;;;;;;;26.13;9.65;;;;;;;-0.94;78.49;93780.63;5083166;28;20299;-77
2024/01/17 03:42:15;;;;;;;20.38;9.75;;;;;;;-0.98;77.63;93774.31;5083004;28;20285;-78
2024/01/17 03:44:44;;;;;;;21.95;9.38;;;;;;;-1.09;77.50;93768.16;5083049;28;20033;-78
2024/01/17 03:47:10;;;;;;;21.02;10.20;;;;;;;-1.13;78.08;93767.06;5083068;28;20024;-78
2024/01/17 03:49:36;;;;;;;23.95;9.75;;;;;;;-1.18;78.03;93766.19;5083108;28;20242;-78
2024/01/17 03:52:01;;;;;;;22.65;10.73;;;;;;;-1.14;78.00;93775.97;5083055;28;20051;-78
2024/01/17 03:54:27;;;;;;;20.65;10.80;;;;;;;-1.17;78.16;93780.88;5081691;28;20334;-78
2024/01/17 03:56:52;;;;;;;24.15;10.95;;;;;;;-1.21;78.05;93794.41;5082944;28;20347;-78
2024/01/17 03:59:17;;;;;;;27.17;10.80;;;;;;;-1.32;77.85;93804.97;5082889;28;20024;-77
2024/01/17 04:01:44;;;;;;;31.73;14.13;;;;;;;-1.51;78.11;93820.91;5082790;28;20044;-78
2024/01/17 04:04:10;;;;;;;32.38;14.10;;;;;;;-1.63;78.51;93823.63;5082684;28;20057;-80
2024/01/17 04:06:36;;;;;;;40.75;16.63;;;;;;;-1.69;79.14;93821.16;5083101;28;20091;-80
2024/01/17 04:09:01;;;;;;;38.78;16.10;;;;;;;-1.83;79.50;93820.69;5082685;28;20465;-80
2024/01/17 04:11:27;;;;;;;30.55;13.93;;;;;;;-1.86;80.08;93814.09;5082866;28;20059;-79
2024/01/17 04:13:52;;;;;;;29.55;12.45;;;;;;;-1.87;80.60;93809.94;5082603;28;20110;-79
2024/01/17 04:16:18;;;;;;;31.63;14.63;;;;;;;-1.84;80.82;93811.25;5082893;28;20318;-79
2024/01/17 04:18:44;;;;;;;33.97;14.10;;;;;;;-1.85;80.79;93813.09;5081434;28;20024;-79
2024/01/17 04:21:20;;;;;;;30.40;14.73;;;;;;;-1.85;80.71;93800.03;5081579;28;20224;-79
2024/01/17 04:23:49;;;;;;;36.40;16.90;;;;;;;-1.78;80.57;93806.91;5082723;28;20028;-78
2024/01/17 04:26:33;;;;;;;43.58;17.77;;;;;;;-1.76;80.24;93799.63;5082686;28;20187;-78
2024/01/17 04:28:58;;;;;;;41.63;18.10;;;;;;;-1.77;80.19;93795.44;5082413;28;20028;-78
2024/01/17 04:31:28;;;;;;;41.65;18.52;;;;;;;-1.75;79.80;93814.28;5082611;28;20123;-77
2024/01/17 04:33:55;;;;;;;44.38;19.70;;;;;;;-1.76;79.87;93815.31;5082392;28;20032;-79
2024/01/17 04:36:22;;;;;;;39.67;18.85;;;;;;;-1.75;79.78;93816.88;5082698;28;20052;-78
2024/01/17 04:38:47;;;;;;;43.42;21.20;;;;;;;-1.80;79.86;93814.19;5082581;28;20024;-78
2024/01/17 04:41:16;;;;;;;46.08;21.65;;;;;;;-1.77;79.83;93816.31;5082578;28;20047;-78
2024/01/17 04:43:44;;;;;;;53.40;24.02;;;;;;;-1.85;79.84;93817.53;5082465;28;20028;-78
2024/01/17 04:46:12;;;;;;;61.60;23.83;;;;;;;-1.81;79.71;93818.66;5082419;28;20326;-77
2024/01/17 04:48:39;;;;;;;90.70;30.02;;;;;;;-1.82;79.61;93822.28;5082872;28;20024;-77
2024/01/17 04:51:05;;;;;;;88.43;31.08;;;;;;;-1.81;79.98;93823.88;5086595;28;20074;-78
2024/01/17 04:53:32;;;;;;;83.00;30.58;;;;;;;-1.82;79.99;93811.81;5086405;28;20032;-78
2024/01/17 04:55:59;;;;;;;89.55;28.95;;;;;;;-1.77;79.52;93816.31;5086479;28;20043;-76
2024/01/17 04:58:24;;;;;;;82.93;28.50;;;;;;;-1.77;79.88;93808.50;5086197;28;20070;-77
2024/01/17 05:00:50;;;;;;;81.00;27.20;;;;;;;-1.73;79.63;93835.72;5086732;28;20052;-77
2024/01/17 05:03:15;;;;;;;79.28;27.67;;;;;;;-1.76;79.85;93841.44;5086137;28;20024;-77
2024/01/17 05:05:43;;;;;;;63.30;26.67;;;;;;;-1.79;79.34;93858.41;5086289;28;20349;-77
2024/01/17 05:08:14;;;;;;;72.85;26.02;;;;;;;-1.76;79.72;93863.13;5086933;28;20054;-80
2024/01/17 05:10:44;;;;;;;85.85;26.65;;;;;;;-1.76;79.52;93873.59;5085268;28;20068;-80
2024/01/17 05:13:10;;;;;;;62.40;24.50;;;;;;;-1.80;79.18;93863.84;5086305;28;20335;-79
2024/01/17 05:15:36;;;;;;;65.25;27.13;;;;;;;-1.82;80.45;93843.19;5086155;28;20025;-80
2024/01/17 05:18:01;;;;;;;74.68;25.40;;;;;;;-1.84;80.72;93834.78;5085994;28;20214;-80
2024/01/17 05:20:27;;;;;;;89.20;29.95;;;;;;;-1.76;80.85;93844.84;5086453;28;20027;-80
2024/01/17 05:22:52;;;;;;;77.10;27.45;;;;;;;-1.68;80.67;93817.53;5086241;28;20330;-80
2024/01/17 05:25:17;;;;;;;80.82;28.83;;;;;;;-1.64;80.59;93802.97;5086345;28;20033;-80
2024/01/17 05:27:50;;;;;;;81.65;26.50;;;;;;;-1.56;80.30;93814.84;5085940;28;20020;-79
2024/01/17 05:30:17;;;;;;;67.10;26.13;;;;;;;-1.53;80.30;93815.13;5085756;28;20024;-79
2024/01/17 05:32:43;;;;;;;67.78;24.58;;;;;;;-1.48;80.27;93823.06;5085858;28;20051;-79
2024/01/17 05:35:08;;;;;;;61.47;24.60;;;;;;;-1.38;80.16;93837.31;5085764;28;20307;-79
2024/01/17 05:37:34;;;;;;;52.50;21.85;;;;;;;-1.34;79.67;93831.38;5085669;28;20051;-79
2024/01/17 05:39:59;;;;;;;71.90;24.40;;;;;;;-1.41;79.72;93836.75;5086046;28;20032;-79
2024/01/17 05:42:25;;;;;;;58.80;22.95;;;;;;;-1.42;80.04;93827.34;5086277;28;20096;-79
2024/01/17 05:44:51;;;;;;;52.72;21.85;;;;;;;-1.33;80.17;93837.41;5085921;28;20059;-74
2024/01/17 05:47:16;;;;;;;61.20;23.35;;;;;;;-1.27;80.00;93818.13;5085603;28;20062;-74
2024/01/17 05:49:42;;;;;;;57.00;22.08;;;;;;;-1.20;80.06;93826.63;5085582;28;20303;-75
2024/01/17 05:52:08;;;;;;;64.65;22.63;;;;;;;-1.13;79.95;93835.06;5085668;28;20066;-75
2024/01/17 05:54:33;;;;;;;58.15;21.55;;;;;;;-1.08;79.54;93850.84;5085493;28;20278;-77
2024/01/17 05:56:58;;;;;;;56.00;23.48;;;;;;;-1.05;79.25;93855.59;5085559;28;20027;-77
2024/01/17 05:59:24;;;;;;;48.95;19.90;;;;;;;-1.04;79.10;93851.13;5085118;28;20020;-77
2024/01/17 06:01:50;;;;;;;48.63;21.00;;;;;;;-1.04;78.62;93848.53;5085818;28;20023;-78
2024/01/17 06:04:15;;;;;;;55.72;22.75;;;;;;;-1.05;78.82;93847.75;5083958;28;20040;-77
2024/01/17 06:06:41;;;;;;;50.97;22.90;;;;;;;-1.02;78.77;93833.38;5085149;28;20638;-78
2024/01/17 06:09:07;;;;;;;57.40;22.83;;;;;;;-1.02;78.96;93822.91;5085217;28;20070;-77
2024/01/17 06:11:32;;;;;;;45.35;22.23;;;;;;;-0.96;79.03;93823.78;5084872;28;20111;-78
2024/01/17 06:13:59;;;;;;;52.83;23.13;;;;;;;-0.93;79.09;93818.84;5085141;28;20032;-77
2024/01/17 06:16:25;;;;;;;55.40;25.05;;;;;;;-0.86;79.24;93813.44;5085331;28;20028;-76
2024/01/17 06:18:51;;;;;;;82.32;30.65;;;;;;;-0.85;79.08;93818.44;5084963;28;20061;-76
2024/01/17 06:21:16;;;;;;;79.25;31.23;;;;;;;-0.83;78.76;93818.19;5084038;28;20029;-76
2024/01/17 06:23:43;;;;;;;70.93;31.13;;;;;;;-0.83;79.12;93831.28;5084904;28;20315;-77
2024/01/17 06:26:09;;;;;;;53.75;23.83;;;;;;;-0.83;78.51;93823.44;5084887;28;20024;-76
2024/01/17 06:28:35;;;;;;;46.35;21.15;;;;;;;-1.02;78.25;93823.72;5084995;28;20219;-78
2024/01/17 06:31:00;;;;;;;54.13;22.63;;;;;;;-1.06;78.80;93833.09;5084908;28;20028;-77
2024/01/17 06:33:26;;;;;;;50.63;20.77;;;;;;;-1.12;78.86;93841.09;5084542;28;20195;-77
2024/01/17 06:35:51;;;;;;;46.50;20.83;;;;;;;-1.14;79.40;93845.75;5083391;28;20032;-77
2024/01/17 06:38:17;;;;;;;51.42;24.38;;;;;;;-1.08;79.12;93842.19;5083711;28;20039;-76
2024/01/17 06:40:42;;;;;;;50.70;23.08;;;;;;;-1.09;79.11;93835.38;5083599;28;20173;-76
2024/01/17 06:43:08;;;;;;;57.97;22.33;;;;;;;-1.05;79.58;93852.97;5082854;28;20024;-77
2024/01/17 06:45:33;;;;;;;51.38;22.90;;;;;;;-1.03;79.23;93850.91;5082654;28;20122;-77
2024/01/17 06:48:01;;;;;;;53.05;25.27;;;;;;;-1.01;79.52;93856.69;5082590;28;20311;-77
2024/01/17 06:50:26;;;;;;;51.63;23.55;;;;;;;-1.15;79.48;93858.06;5082665;28;20043;-77
2024/01/17 06:52:52;;;;;;;58.17;26.00;;;;;;;-1.05;79.87;93857.41;5083580;28;20196;-76
2024/01/17 06:55:17;;;;;;;54.63;25.92;;;;;;;-1.04;80.23;93851.13;5084169;28;20055;-76
2024/01/17 06:57:43;;;;;;;57.70;26.23;;;;;;;-0.99;80.04;93850.44;5083994;28;20024;-77
2024/01/17 07:00:08;;;;;;;57.35;26.95;;;;;;;-0.88;80.48;93839.06;5084344;28;20087;-76
2024/01/17 07:02:34;;;;;;;61.85;26.50;;;;;;;-0.77;80.11;93832.94;5084137;28;20020;-77
2024/01/17 07:04:59;;;;;;;55.70;26.20;;;;;;;-0.69;79.92;93824.66;5084036;28;20024;-77
2024/01/17 07:07:25;;;;;;;51.65;26.55;;;;;;;-0.63;80.08;93834.16;5083953;28;20091;-77
2024/01/17 07:09:50;;;;;;;56.13;27.25;;;;;;;-0.52;79.73;93834.28;5083856;28;20058;-77
2024/01/17 07:12:16;;;;;;;59.95;26.73;;;;;;;-0.42;79.45;93842.25;5083112;28;20037;-77
2024/01/17 07:14:41;;;;;;;54.15;25.70;;;;;;;-0.31;78.73;93825.59;5083804;28;20063;-77
2024/01/17 07:17:07;;;;;;;55.08;26.58;;;;;;;-0.24;78.61;93835.91;5083870;28;20091;-77
2024/01/17 07:19:36;;;;;;;63.03;26.48;;;;;;;-0.16;78.02;93817.13;5083482;28;20252;-77
2024/01/17 07:22:01;;;;;;;54.03;27.05;;;;;;;-0.07;78.14;93833.19;5083777;28;20250;-77
2024/01/17 07:24:27;;;;;;;51.95;22.27;;;;;;;0.02;77.12;93829.09;5083409;28;20024;-75
2024/01/17 07:26:52;;;;;;;48.10;22.17;;;;;;;0.08;76.02;93838.56;5083264;28;20091;-74
2024/01/17 07:29:18;;;;;;;43.47;22.48;;;;;;;0.15;75.08;93852.25;5083726;28;20088;-75
2024/01/17 07:31:43;;;;;;;56.17;23.60;;;;;;;0.07;75.78;93862.41;5083004;28;20024;-74
2024/01/17 07:34:08;;;;;;;53.25;22.95;;;;;;;0.02;76.09;93868.41;5083258;28;20020;-74
2024/01/17 07:36:34;;;;;;;62.88;26.30;;;;;;;0.05;76.91;93864.47;5083245;28;20020;-74
2024/01/17 07:38:59;;;;;;;57.65;26.27;;;;;;;0.06;77.24;93860.81;5083177;28;20222;-74
2024/01/17 07:41:25;;;;;;;64.65;27.45;;;;;;;0.05;76.97;93872.34;5083200;28;20043;-76
2024/01/17 07:43:50;;;;;;;59.58;27.15;;;;;;;-0.02;77.17;93859.41;5083591;28;20180;-75
2024/01/17 07:46:16;;;;;;;50.45;25.05;;;;;;;0.05;76.88;93865.25;5083232;28;20196;-75
2024/01/17 07:48:42;;;;;;;55.88;26.05;;;;;;;0.07;76.51;93873.69;5083163;28;20446;-76
2024/01/17 07:51:08;;;;;;;48.67;23.50;;;;;;;0.12;75.47;93855.38;5083021;28;20031;-76
2024/01/17 07:53:33;;;;;;;47.75;22.08;;;;;;;0.10;75.58;93833.88;5082929;28;20039;-75
2024/01/17 07:56:00;;;;;;;46.08;22.55;;;;;;;0.13;76.12;93840.44;5082734;28;20024;-75
2024/01/17 07:58:25;;;;;;;35.35;18.42;;;;;;;0.18;75.24;93846.53;5082964;28;20279;-75
2024/01/17 08:00:51;;;;;;;39.30;19.65;;;;;;;0.24;74.57;93830.84;5083081;28;20020;-75
2024/01/17 08:03:16;;;;;;;46.53;19.40;;;;;;;0.36;74.77;93834.88;5082913;28;20040;-76
2024/01/17 08:05:41;;;;;;;48.78;23.25;;;;;;;0.52;74.83;93848.91;5082849;28;20021;-76
2024/01/17 08:08:07;;;;;;;43.58;20.33;;;;;;;0.63;73.82;93848.97;5082752;28;20016;-76
2024/01/17 08:10:32;;;;;;;43.42;21.17;;;;;;;0.70;72.92;93852.19;5082601;28;20032;-76
2024/01/17 08:12:58;;;;;;;50.13;23.13;;;;;;;0.74;72.74;93861.16;5081832;28;20020;-76
2024/01/17 08:15:24;;;;;;;53.85;24.48;;;;;;;0.73;73.97;93856.94;5082852;28;20031;-76
2024/01/17 08:17:50;;;;;;;38.22;20.10;;;;;;;0.70;73.38;93855.59;5082784;28;20035;-75
2024/01/17 08:20:16;;;;;;;41.92;21.45;;;;;;;0.58;73.90;93861.00;5082782;28;20088;-75
2024/01/17 08:22:43;;;;;;;41.50;21.30;;;;;;;0.56;73.23;93857.06;5082593;28;20156;-75
2024/01/17 08:25:08;;;;;;;45.40;21.52;;;;;;;0.56;73.60;93865.72;5082252;28;20020;-76
2024/01/17 08:27:34;;;;;;;46.67;22.80;;;;;;;0.65;73.21;93870.50;5082863;28;20040;-76
2024/01/17 08:29:59;;;;;;;48.45;23.80;;;;;;;0.70;74.03;93866.09;5082706;28;20027;-76
2024/01/17 08:32:24;;;;;;;51.60;24.17;;;;;;;0.83;73.92;93864.88;5082782;28;20025;-76
2024/01/17 08:34:50;;;;;;;52.40;25.98;;;;;;;0.89;74.73;93857.84;5082894;28;20028;-75
2024/01/17 08:37:16;;;;;;;51.90;25.98;;;;;;;1.02;74.24;93856.59;5082572;28;20040;-74
2024/01/17 08:39:44;;;;;;;56.83;26.05;;;;;;;1.18;74.62;93850.38;5082392;28;20029;-74
2024/01/17 08:42:11;;;;;;;58.10;24.77;;;;;;;1.27;73.33;93854.13;5082670;28;20028;-74
2024/01/17 08:44:37;;;;;;;52.92;25.13;;;;;;;1.25;72.82;93861.47;5082662;28;20138;-77
2024/01/17 08:47:02;;;;;;;57.30;26.77;;;;;;;1.34;72.14;93864.38;5083498;28;20107;-82
2024/01/17 08:49:28;;;;;;;51.88;24.10;;;;;;;1.31;73.01;93876.19;5082765;28;20210;-77
2024/01/17 08:51:54;;;;;;;60.47;22.92;;;;;;;1.25;72.12;93877.22;5082422;28;20043;-77
2024/01/17 08:54:19;;;;;;;45.40;20.75;;;;;;;1.21;71.92;93865.66;5082525;28;20330;-77
2024/01/17 08:56:46;;;;;;;57.67;23.02;;;;;;;1.12;72.78;93867.16;5081050;28;20112;-76
2024/01/17 08:59:12;;;;;;;40.97;19.67;;;;;;;1.07;71.66;93875.00;5082478;28;20032;-76
2024/01/17 09:01:37;;;;;;;42.38;22.40;;;;;;;1.07;72.18;93862.66;5082235;28;20062;-77
2024/01/17 09:04:03;;;;;;;51.05;24.50;;;;;;;1.14;72.12;93862.44;5082460;28;20025;-77
2024/01/17 09:06:29;;;;;;;57.05;24.45;;;;;;;1.14;72.73;93875.56;5082409;28;20051;-77
2024/01/17 09:08:54;;;;;;;57.65;24.50;;;;;;;1.27;72.37;93863.84;5082053;28;20088;-76
2024/01/17 09:11:19;;;;;;;44.65;21.15;;;;;;;1.42;70.89;93868.38;5082574;28;20239;-78
2024/01/17 09:13:46;;;;;;;45.78;21.25;;;;;;;1.45;69.54;93860.00;5082587;28;20381;-77
2024/01/17 09:16:11;;;;;;;47.17;23.20;;;;;;;1.44;69.40;93861.03;5082650;28;20032;-79
2024/01/17 09:18:37;;;;;;;45.22;22.08;;;;;;;1.44;69.74;93837.41;5083187;28;20033;-80
2024/01/17 09:21:02;;;;;;;45.40;22.77;;;;;;;1.55;70.46;93828.53;5083294;28;20032;-80
2024/01/17 09:23:28;;;;;;;47.70;23.02;;;;;;;1.69;70.70;93821.75;5083146;28;20039;-81
2024/01/17 09:25:53;;;;;;;55.15;24.67;;;;;;;1.83;70.91;93816.75;5081687;28;20315;-80
2024/01/17 09:28:19;;;;;;;52.88;25.40;;;;;;;2.03;70.66;93812.59;5082735;28;20025;-80
2024/01/17 09:30:44;;;;;;;48.70;23.83;;;;;;;2.18;69.57;93802.13;5082231;28;20028;-80
2024/01/17 09:33:09;;;;;;;53.55;25.77;;;;;;;2.39;68.64;93840.53;5082233;28;20338;-79
2024/01/17 09:35:36;;;;;;;60.95;25.15;;;;;;;2.49;68.38;93828.44;5083814;28;20056;-78
2024/01/17 09:38:02;;;;;;;54.65;24.58;;;;;;;2.56;68.66;93826.31;5085670;28;20025;-78
2024/01/17 09:40:28;;;;;;;59.38;26.25;;;;;;;2.55;67.70;93830.03;5085980;28;20020;-81
2024/01/17 09:42:54;;;;;;;61.17;26.92;;;;;;;2.56;67.32;93821.84;5085708;28;20078;-81
2024/01/17 09:45:21;;;;;;;62.38;29.08;;;;;;;2.71;67.42;93817.66;5086234;28;20043;-81
2024/01/17 09:47:48;;;;;;;62.85;28.17;;;;;;;2.90;66.61;93826.56;5085938;28;20032;-82
2024/01/17 09:50:14;;;;;;;65.47;28.02;;;;;;;2.93;67.27;93801.53;5086702;28;20020;-80
2024/01/17 09:52:41;;;;;;;52.80;27.20;;;;;;;3.16;66.97;93785.19;5085863;28;20024;-81
2024/01/17 09:55:08;;;;;;;62.53;26.70;;;;;;;3.32;64.83;93795.69;5085427;28;20024;-81
2024/01/17 09:57:42;;;;;;;59.63;26.67;;;;;;;3.48;64.60;93786.66;5085666;28;20062;-81
2024/01/17 10:00:09;;;;;;;52.63;26.67;;;;;;;3.50;62.83;93786.38;5085786;28;20028;-81
2024/01/17 10:02:38;;;;;;;52.15;23.73;;;;;;;3.23;64.68;93779.63;5085764;28;20020;-82
2024/01/17 10:05:09;;;;;;;53.63;24.20;;;;;;;3.44;63.60;93776.91;5085319;28;20058;-78
2024/01/17 10:07:36;;;;;;;56.85;25.80;;;;;;;3.47;63.85;93760.56;5085045;28;20191;-78
2024/01/17 10:10:04;;;;;;;55.42;26.27;;;;;;;3.63;64.68;93767.34;5085228;28;20028;-78
2024/01/17 10:12:30;;;;;;;49.47;24.38;;;;;;;3.84;62.72;93772.50;5084867;28;20342;-78
2024/01/17 10:14:56;;;;;;;51.55;25.17;;;;;;;3.97;62.55;93779.81;5085010;28;20076;-78
2024/01/17 10:17:21;;;;;;;69.65;28.90;;;;;;;4.01;63.13;93770.31;5084863;28;20364;-77
2024/01/17 10:19:47;;;;;;;49.70;26.77;;;;;;;4.11;62.71;93780.78;5085082;28;20036;-83
2024/01/17 10:22:13;;;;;;;46.10;23.13;;;;;;;4.15;61.27;93766.00;5084829;28;20032;-77
2024/01/17 10:24:39;;;;;;;43.47;21.70;;;;;;;4.25;60.63;93753.78;5084820;28;20199;-77
2024/01/17 10:27:06;;;;;;;49.05;23.35;;;;;;;4.38;60.32;93755.78;5084627;28;20248;-78
2024/01/17 10:29:32;;;;;;;43.88;21.88;;;;;;;4.41;59.96;93756.00;5084546;28;20066;-78
2024/01/17 10:32:00;;;;;;;43.97;19.33;;;;;;;4.42;58.87;93751.53;5082893;28;20032;-78
2024/01/17 10:34:32;;;;;;;30.30;19.02;;;;;;;4.46;57.17;93749.09;5082760;28;20020;-78
2024/01/17 10:36:58;;;;;;;43.35;19.55;;;;;;;4.49;57.53;93738.78;5083313;28;20025;-77
2024/01/17 10:39:27;;;;;;;42.97;22.65;;;;;;;4.42;58.12;93744.41;5083063;28;20051;-77
2024/01/17 10:41:59;;;;;;;51.25;23.33;;;;;;;4.35;59.89;93728.09;5082999;28;20090;-78
2024/01/17 10:44:26;;;;;;;57.60;24.13;;;;;;;4.52;58.35;93729.53;5081551;28;20031;-78
2024/01/17 10:46:55;;;;;;;46.80;21.13;;;;;;;4.62;58.59;93719.69;5082725;28;20044;-78
2024/01/17 10:49:22;;;;;;;44.95;22.40;;;;;;;4.71;58.02;93713.78;5083009;28;20024;-78
2024/01/17 10:52:11;;;;;;;44.38;20.38;;;;;;;4.99;57.97;93712.97;5083764;28;20093;-78
2024/01/17 10:54:45;;;;;;;44.50;19.58;;;;;;;5.31;57.28;93698.34;5083398;28;20242;-78
2024/01/17 10:57:14;;;;;;;41.92;19.77;;;;;;;5.58;56.18;93704.88;5083541;28;20212;-78
2024/01/17 10:59:42;;;;;;;40.72;21.17;;;;;;;5.67;53.58;93697.06;5083784;28;20346;-78
2024/01/17 11:02:16;;;;;;;50.95;20.23;;;;;;;5.55;53.46;93689.56;5083522;28;20184;-77
2024/01/17 11:04:45;;;;;;;39.05;20.85;;;;;;;5.51;54.87;93683.25;5084019;28;20279;-78
2024/01/17 11:07:11;;;;;;;44.70;19.35;;;;;;;5.70;54.59;93681.41;5084142;28;20051;-78
2024/01/17 11:09:38;;;;;;;46.22;21.92;;;;;;;5.81;53.83;93682.84;5083923;28;20028;-79
2024/01/17 11:12:05;;;;;;;53.58;22.50;;;;;;;5.77;54.56;93667.84;5083669;28;20369;-77
2024/01/17 11:14:31;;;;;;;56.17;22.75;;;;;;;6.01;54.50;93665.13;5083688;28;20028;-77
2024/01/17 11:17:03;;;;;;;44.28;20.52;;;;;;;6.28;54.42;93650.41;5083954;28;20073;-77